AAL2721 KSAN-KPHX
Flight info
| Callsign | AAL2721 |
|---|---|
| Flight time | 0h 54m |
| Altitude | 33000 |
| Route | ZZOOO4 HOGGZ HYDRR1 |
| Aircraft | A21N/M-SDE2E3FGHIRWXY/LB1 |
Departure
| Time | 2026-05-07 23:17 |
|---|---|
| Airport | San Diego International Airport (KSAN) |
Arrival
| Time | 2026-05-08 00:12 |
|---|---|
| Airport | Phoenix Sky Harbor International Airport (KPHX) |
| Time | Latitude | Longitude | Altitude | Speed | Heading |
|---|---|---|---|---|---|
| 2026-05-07 22:50 | 32.73335 | -117.20172 | 23 ft | 0 kts | 85° |
| 2026-05-07 23:03 | 32.73335 | -117.20173 | 23 ft | 1 kts | 85° |
| 2026-05-07 23:04 | 32.73334 | -117.20190 | 23 ft | 2 kts | 85° |
| 2026-05-07 23:04 | 32.73333 | -117.20207 | 23 ft | 2 kts | 85° |
| 2026-05-07 23:04 | 32.73331 | -117.20225 | 22 ft | 2 kts | 85° |
| 2026-05-07 23:04 | 32.73330 | -117.20240 | 22 ft | 0 kts | 85° |
| 2026-05-07 23:05 | 32.73326 | -117.20255 | 22 ft | 2 kts | 34° |
| 2026-05-07 23:05 | 32.73314 | -117.20259 | 22 ft | 0 kts | 348° |
| 2026-05-07 23:05 | 32.73307 | -117.20256 | 22 ft | 0 kts | 344° |
| 2026-05-07 23:07 | 32.73309 | -117.20257 | 22 ft | 1 kts | 343° |
| 2026-05-07 23:07 | 32.73316 | -117.20259 | 22 ft | 0 kts | 342° |
| 2026-05-07 23:07 | 32.73321 | -117.20261 | 22 ft | 3 kts | 343° |
| 2026-05-07 23:08 | 32.73357 | -117.20273 | 22 ft | 5 kts | 348° |
| 2026-05-07 23:08 | 32.73395 | -117.20273 | 22 ft | 0 kts | 9° |
| 2026-05-07 23:10 | 32.73416 | -117.20267 | 22 ft | 7 kts | 13° |
| 2026-05-07 23:10 | 32.73470 | -117.20250 | 22 ft | 8 kts | 17° |
| 2026-05-07 23:10 | 32.73527 | -117.20224 | 22 ft | 9 kts | 36° |
| 2026-05-07 23:10 | 32.73540 | -117.20152 | 23 ft | 10 kts | 101° |
| 2026-05-07 23:11 | 32.73523 | -117.20074 | 23 ft | 9 kts | 105° |
| 2026-05-07 23:11 | 32.73504 | -117.19997 | 23 ft | 10 kts | 106° |
| 2026-05-07 23:11 | 32.73484 | -117.19913 | 23 ft | 10 kts | 105° |
| 2026-05-07 23:11 | 32.73460 | -117.19821 | 24 ft | 12 kts | 107° |
| 2026-05-07 23:12 | 32.73436 | -117.19716 | 24 ft | 13 kts | 105° |
| 2026-05-07 23:12 | 32.73410 | -117.19610 | 24 ft | 13 kts | 107° |
| 2026-05-07 23:12 | 32.73382 | -117.19498 | 25 ft | 14 kts | 106° |
| 2026-05-07 23:12 | 32.73355 | -117.19385 | 25 ft | 14 kts | 105° |
| 2026-05-07 23:13 | 32.73328 | -117.19267 | 25 ft | 14 kts | 106° |
| 2026-05-07 23:13 | 32.73299 | -117.19147 | 25 ft | 15 kts | 105° |
| 2026-05-07 23:13 | 32.73267 | -117.19028 | 25 ft | 15 kts | 106° |
| 2026-05-07 23:13 | 32.73237 | -117.18900 | 25 ft | 15 kts | 106° |
| 2026-05-07 23:14 | 32.73207 | -117.18775 | 25 ft | 16 kts | 105° |
| 2026-05-07 23:14 | 32.73176 | -117.18647 | 25 ft | 16 kts | 106° |
| 2026-05-07 23:14 | 32.73144 | -117.18518 | 25 ft | 16 kts | 105° |
| 2026-05-07 23:14 | 32.73114 | -117.18390 | 25 ft | 16 kts | 106° |
| 2026-05-07 23:15 | 32.73083 | -117.18259 | 26 ft | 16 kts | 105° |
| 2026-05-07 23:15 | 32.73050 | -117.18130 | 26 ft | 16 kts | 109° |
| 2026-05-07 23:15 | 32.73019 | -117.18000 | 26 ft | 16 kts | 106° |
| 2026-05-07 23:15 | 32.72987 | -117.17868 | 27 ft | 16 kts | 106° |
| 2026-05-07 23:16 | 32.72959 | -117.17740 | 27 ft | 16 kts | 99° |
| 2026-05-07 23:16 | 32.72997 | -117.17633 | 28 ft | 14 kts | 9° |
| 2026-05-07 23:16 | 32.73053 | -117.17723 | 27 ft | 17 kts | 285° |
| 2026-05-07 23:16 | 32.73135 | -117.18072 | 26 ft | 81 kts | 286° |
| 2026-05-07 23:17 | 32.73360 | -117.18988 | 26 ft | 148 kts | 285° |
| 2026-05-07 23:17 | 32.73687 | -117.20330 | 302 ft | 177 kts | 285° |
| 2026-05-07 23:17 | 32.74022 | -117.21757 | 1206 ft | 170 kts | 284° |
| 2026-05-07 23:17 | 32.74343 | -117.23293 | 2016 ft | 174 kts | 286° |
| 2026-05-07 23:18 | 32.74757 | -117.24950 | 2598 ft | 190 kts | 288° |
| 2026-05-07 23:18 | 32.75211 | -117.26729 | 3154 ft | 208 kts | 289° |
| 2026-05-07 23:18 | 32.75676 | -117.28578 | 3655 ft | 227 kts | 288° |
| 2026-05-07 23:18 | 32.76181 | -117.30629 | 4244 ft | 244 kts | 288° |
| 2026-05-07 23:19 | 32.76541 | -117.32712 | 5199 ft | 247 kts | 270° |
| 2026-05-07 23:19 | 32.76043 | -117.34692 | 6075 ft | 253 kts | 239° |
| 2026-05-07 23:19 | 32.74665 | -117.36195 | 6926 ft | 261 kts | 207° |
| 2026-05-07 23:19 | 32.72738 | -117.36637 | 7704 ft | 269 kts | 173° |
| 2026-05-07 23:20 | 32.70862 | -117.35721 | 8521 ft | 269 kts | 137° |
| 2026-05-07 23:20 | 32.69562 | -117.33939 | 9381 ft | 268 kts | 125° |
| 2026-05-07 23:20 | 32.68322 | -117.32050 | 10209 ft | 271 kts | 125° |
| 2026-05-07 23:20 | 32.67029 | -117.30137 | 10744 ft | 273 kts | 126° |
| 2026-05-07 23:21 | 32.65705 | -117.28223 | 10959 ft | 274 kts | 126° |
| 2026-05-07 23:21 | 32.64309 | -117.26226 | 10956 ft | 273 kts | 125° |
| 2026-05-07 23:21 | 32.63220 | -117.23991 | 10960 ft | 269 kts | 106° |
| 2026-05-07 23:21 | 32.62798 | -117.21478 | 10984 ft | 293 kts | 94° |
| 2026-05-07 23:22 | 32.62563 | -117.18571 | 10985 ft | 328 kts | 93° |
| 2026-05-07 23:22 | 32.62303 | -117.15338 | 11247 ft | 352 kts | 94° |
| 2026-05-07 23:22 | 32.62137 | -117.12023 | 11885 ft | 361 kts | 86° |
| 2026-05-07 23:22 | 32.62513 | -117.08798 | 12679 ft | 362 kts | 75° |
| 2026-05-07 23:23 | 32.63368 | -117.05751 | 13463 ft | 363 kts | 68° |
| 2026-05-07 23:23 | 32.64377 | -117.02699 | 14220 ft | 367 kts | 67° |
| 2026-05-07 23:23 | 32.65370 | -116.99712 | 14947 ft | 371 kts | 68° |
| 2026-05-07 23:23 | 32.66183 | -116.96562 | 15667 ft | 376 kts | 75° |
| 2026-05-07 23:24 | 32.66647 | -116.93317 | 16372 ft | 381 kts | 81° |
| 2026-05-07 23:24 | 32.66810 | -116.90009 | 17019 ft | 386 kts | 85° |
| 2026-05-07 23:24 | 32.66887 | -116.86624 | 17653 ft | 390 kts | 85° |
| 2026-05-07 23:24 | 32.66953 | -116.83227 | 18283 ft | 394 kts | 85° |
| 2026-05-07 23:25 | 32.67023 | -116.79856 | 18902 ft | 396 kts | 85° |
| 2026-05-07 23:25 | 32.67096 | -116.76566 | 19399 ft | 402 kts | 85° |
| 2026-05-07 23:25 | 32.67096 | -116.73237 | 19818 ft | 409 kts | 88° |
| 2026-05-07 23:25 | 32.67050 | -116.69868 | 20336 ft | 413 kts | 88° |
| 2026-05-07 23:26 | 32.66993 | -116.66294 | 20875 ft | 416 kts | 88° |
| 2026-05-07 23:26 | 32.66934 | -116.62768 | 21383 ft | 419 kts | 88° |
| 2026-05-07 23:26 | 32.66875 | -116.59190 | 21882 ft | 422 kts | 88° |
| 2026-05-07 23:26 | 32.66814 | -116.55590 | 22352 ft | 426 kts | 88° |
| 2026-05-07 23:27 | 32.66690 | -116.48297 | 23358 ft | 431 kts | 87° |
| 2026-05-07 23:27 | 32.66658 | -116.44589 | 23823 ft | 434 kts | 85° |
| 2026-05-07 23:27 | 32.66783 | -116.40892 | 24311 ft | 435 kts | 82° |
| 2026-05-07 23:28 | 32.67070 | -116.37202 | 24740 ft | 437 kts | 81° |
| 2026-05-07 23:28 | 32.67405 | -116.33495 | 25125 ft | 440 kts | 81° |
| 2026-05-07 23:28 | 32.67748 | -116.29763 | 25523 ft | 443 kts | 81° |
| 2026-05-07 23:28 | 32.68090 | -116.26035 | 25888 ft | 446 kts | 81° |
| 2026-05-07 23:29 | 32.68433 | -116.22241 | 26299 ft | 447 kts | 80° |
| 2026-05-07 23:29 | 32.68769 | -116.18509 | 26844 ft | 445 kts | 81° |
| 2026-05-07 23:29 | 32.69101 | -116.14794 | 27405 ft | 443 kts | 81° |
| 2026-05-07 23:29 | 32.69426 | -116.11135 | 27892 ft | 442 kts | 81° |
| 2026-05-07 23:30 | 32.69756 | -116.07422 | 28357 ft | 441 kts | 81° |
| 2026-05-07 23:30 | 32.70080 | -116.03773 | 28832 ft | 439 kts | 80° |
| 2026-05-07 23:30 | 32.70411 | -116.00133 | 29297 ft | 438 kts | 80° |
| 2026-05-07 23:30 | 32.70743 | -115.96551 | 29755 ft | 436 kts | 80° |
| 2026-05-07 23:31 | 32.71075 | -115.93001 | 30175 ft | 436 kts | 80° |
| 2026-05-07 23:31 | 32.71407 | -115.89423 | 30575 ft | 435 kts | 79° |
| 2026-05-07 23:31 | 32.71733 | -115.85883 | 30949 ft | 435 kts | 80° |
| 2026-05-07 23:31 | 32.72065 | -115.82294 | 31326 ft | 434 kts | 79° |
| 2026-05-07 23:32 | 32.72390 | -115.78741 | 31652 ft | 435 kts | 79° |
| 2026-05-07 23:32 | 32.72714 | -115.75194 | 31937 ft | 436 kts | 79° |
| 2026-05-07 23:32 | 32.73040 | -115.71608 | 32224 ft | 436 kts | 79° |
| 2026-05-07 23:32 | 32.73365 | -115.68016 | 32493 ft | 437 kts | 79° |
| 2026-05-07 23:33 | 32.73689 | -115.64422 | 32742 ft | 438 kts | 80° |
| 2026-05-07 23:33 | 32.74008 | -115.60859 | 32832 ft | 438 kts | 80° |
| 2026-05-07 23:33 | 32.74649 | -115.53686 | 32838 ft | 438 kts | 80° |
| 2026-05-07 23:34 | 32.75015 | -115.46428 | 32840 ft | 440 kts | 84° |
| 2026-05-07 23:34 | 32.75193 | -115.39178 | 32833 ft | 440 kts | 84° |
| 2026-05-07 23:35 | 32.75358 | -115.31969 | 32833 ft | 439 kts | 84° |
| 2026-05-07 23:35 | 32.75525 | -115.24733 | 32834 ft | 439 kts | 84° |
| 2026-05-07 23:36 | 32.75688 | -115.17492 | 32829 ft | 438 kts | 84° |
| 2026-05-07 23:36 | 32.75844 | -115.10315 | 32824 ft | 437 kts | 84° |
| 2026-05-07 23:37 | 32.75998 | -115.03095 | 32819 ft | 437 kts | 84° |
| 2026-05-07 23:37 | 32.76147 | -114.95895 | 32818 ft | 437 kts | 84° |
| 2026-05-07 23:38 | 32.76219 | -114.92330 | 32691 ft | 437 kts | 84° |
| 2026-05-07 23:38 | 32.76291 | -114.88725 | 32429 ft | 435 kts | 84° |
| 2026-05-07 23:38 | 32.76360 | -114.85184 | 32170 ft | 431 kts | 84° |
| 2026-05-07 23:38 | 32.76428 | -114.81623 | 31911 ft | 429 kts | 84° |
| 2026-05-07 23:39 | 32.76496 | -114.78060 | 31649 ft | 427 kts | 84° |
| 2026-05-07 23:39 | 32.76561 | -114.74574 | 31392 ft | 427 kts | 83° |
| 2026-05-07 23:39 | 32.76628 | -114.71056 | 31134 ft | 427 kts | 84° |
| 2026-05-07 23:39 | 32.76693 | -114.67534 | 30876 ft | 428 kts | 84° |
| 2026-05-07 23:40 | 32.76756 | -114.63996 | 30615 ft | 428 kts | 83° |
| 2026-05-07 23:40 | 32.76819 | -114.60453 | 30356 ft | 428 kts | 83° |
| 2026-05-07 23:40 | 32.76876 | -114.56919 | 30100 ft | 429 kts | 83° |
| 2026-05-07 23:40 | 32.76926 | -114.53409 | 29842 ft | 430 kts | 83° |
| 2026-05-07 23:41 | 32.76977 | -114.49812 | 29581 ft | 431 kts | 83° |
| 2026-05-07 23:41 | 32.77027 | -114.46254 | 29321 ft | 432 kts | 84° |
| 2026-05-07 23:41 | 32.77073 | -114.42687 | 29064 ft | 432 kts | 83° |
| 2026-05-07 23:41 | 32.77121 | -114.39140 | 28804 ft | 433 kts | 84° |
| 2026-05-07 23:42 | 32.77168 | -114.35563 | 28544 ft | 432 kts | 84° |
| 2026-05-07 23:42 | 32.77212 | -114.31980 | 28287 ft | 433 kts | 84° |
| 2026-05-07 23:42 | 32.77257 | -114.28303 | 28023 ft | 434 kts | 84° |
| 2026-05-07 23:42 | 32.77303 | -114.24563 | 27754 ft | 434 kts | 84° |
| 2026-05-07 23:43 | 32.77345 | -114.20789 | 27483 ft | 435 kts | 84° |
| 2026-05-07 23:43 | 32.77388 | -114.16989 | 27210 ft | 436 kts | 84° |
| 2026-05-07 23:43 | 32.77432 | -114.13183 | 26941 ft | 436 kts | 84° |
| 2026-05-07 23:43 | 32.77486 | -114.09457 | 26673 ft | 436 kts | 83° |
| 2026-05-07 23:44 | 32.77682 | -114.05762 | 26408 ft | 434 kts | 80° |
| 2026-05-07 23:44 | 32.78038 | -114.02048 | 26143 ft | 433 kts | 78° |
| 2026-05-07 23:44 | 32.78434 | -113.98420 | 25880 ft | 434 kts | 78° |
| 2026-05-07 23:44 | 32.78842 | -113.94741 | 25616 ft | 434 kts | 78° |
| 2026-05-07 23:45 | 32.79245 | -113.91078 | 25357 ft | 431 kts | 78° |
| 2026-05-07 23:45 | 32.79644 | -113.87453 | 25092 ft | 429 kts | 78° |
| 2026-05-07 23:45 | 32.80033 | -113.83886 | 24871 ft | 427 kts | 78° |
| 2026-05-07 23:45 | 32.80427 | -113.80262 | 24850 ft | 427 kts | 78° |
| 2026-05-07 23:46 | 32.80816 | -113.76690 | 24845 ft | 427 kts | 78° |
| 2026-05-07 23:46 | 32.81219 | -113.73138 | 24839 ft | 423 kts | 76° |
| 2026-05-07 23:46 | 32.82005 | -113.69877 | 24838 ft | 399 kts | 64° |
| 2026-05-07 23:46 | 32.83247 | -113.67016 | 24691 ft | 381 kts | 54° |
| 2026-05-07 23:47 | 32.84842 | -113.64555 | 24422 ft | 367 kts | 47° |
| 2026-05-07 23:47 | 32.86498 | -113.62320 | 24152 ft | 361 kts | 46° |
| 2026-05-07 23:47 | 32.88190 | -113.60066 | 23878 ft | 360 kts | 46° |
| 2026-05-07 23:47 | 32.89862 | -113.57828 | 23606 ft | 358 kts | 47° |
| 2026-05-07 23:48 | 32.91526 | -113.55600 | 23333 ft | 357 kts | 46° |
| 2026-05-07 23:48 | 32.93169 | -113.53391 | 23067 ft | 356 kts | 47° |
| 2026-05-07 23:48 | 32.94812 | -113.51176 | 22796 ft | 355 kts | 47° |
| 2026-05-07 23:48 | 32.96487 | -113.48920 | 22526 ft | 353 kts | 47° |
| 2026-05-07 23:49 | 32.98129 | -113.46699 | 22255 ft | 353 kts | 47° |
| 2026-05-07 23:49 | 32.99765 | -113.44489 | 21986 ft | 352 kts | 47° |
| 2026-05-07 23:49 | 33.01390 | -113.42291 | 21719 ft | 350 kts | 47° |
| 2026-05-07 23:49 | 33.03019 | -113.40089 | 21455 ft | 349 kts | 47° |
| 2026-05-07 23:50 | 33.04650 | -113.37882 | 21190 ft | 347 kts | 47° |
| 2026-05-07 23:50 | 33.06277 | -113.35683 | 20927 ft | 345 kts | 47° |
| 2026-05-07 23:50 | 33.07928 | -113.33456 | 20657 ft | 345 kts | 47° |
| 2026-05-07 23:50 | 33.09558 | -113.31256 | 20390 ft | 344 kts | 47° |
| 2026-05-07 23:51 | 33.11170 | -113.29077 | 20123 ft | 343 kts | 48° |
| 2026-05-07 23:51 | 33.12767 | -113.26915 | 19860 ft | 343 kts | 48° |
| 2026-05-07 23:51 | 33.14371 | -113.24745 | 19605 ft | 341 kts | 48° |
| 2026-05-07 23:51 | 33.15961 | -113.22589 | 19343 ft | 339 kts | 48° |
| 2026-05-07 23:52 | 33.17547 | -113.20437 | 19078 ft | 339 kts | 48° |
| 2026-05-07 23:52 | 33.19129 | -113.18292 | 18823 ft | 337 kts | 48° |
| 2026-05-07 23:52 | 33.20753 | -113.16085 | 18552 ft | 336 kts | 48° |
| 2026-05-07 23:52 | 33.22453 | -113.13774 | 18273 ft | 336 kts | 48° |
| 2026-05-07 23:53 | 33.24091 | -113.11551 | 17994 ft | 334 kts | 48° |
| 2026-05-07 23:53 | 33.25707 | -113.09338 | 17715 ft | 330 kts | 50° |
| 2026-05-07 23:53 | 33.26894 | -113.06991 | 17378 ft | 325 kts | 65° |
| 2026-05-07 23:53 | 33.27475 | -113.04380 | 17111 ft | 321 kts | 79° |
| 2026-05-07 23:54 | 33.27602 | -113.01719 | 16867 ft | 319 kts | 84° |
| 2026-05-07 23:54 | 33.27667 | -112.99026 | 16614 ft | 319 kts | 85° |
| 2026-05-07 23:54 | 33.27725 | -112.96386 | 16367 ft | 318 kts | 85° |
| 2026-05-07 23:54 | 33.27785 | -112.93721 | 16108 ft | 318 kts | 85° |
| 2026-05-07 23:55 | 33.27848 | -112.91004 | 15854 ft | 317 kts | 85° |
| 2026-05-07 23:55 | 33.27913 | -112.88280 | 15598 ft | 317 kts | 85° |
| 2026-05-07 23:55 | 33.27977 | -112.85632 | 15367 ft | 314 kts | 85° |
| 2026-05-07 23:55 | 33.28043 | -112.83048 | 15050 ft | 308 kts | 84° |
| 2026-05-07 23:56 | 33.28215 | -112.80519 | 14750 ft | 301 kts | 81° |
| 2026-05-07 23:56 | 33.28442 | -112.78077 | 14497 ft | 295 kts | 80° |
| 2026-05-07 23:56 | 33.28674 | -112.75644 | 14254 ft | 294 kts | 81° |
| 2026-05-07 23:56 | 33.28905 | -112.73219 | 14018 ft | 294 kts | 81° |
| 2026-05-07 23:57 | 33.29134 | -112.70804 | 13781 ft | 294 kts | 81° |
| 2026-05-07 23:57 | 33.29365 | -112.68355 | 13530 ft | 294 kts | 81° |
| 2026-05-07 23:57 | 33.29604 | -112.65800 | 13280 ft | 294 kts | 81° |
| 2026-05-07 23:57 | 33.29842 | -112.63261 | 13026 ft | 294 kts | 81° |
| 2026-05-07 23:58 | 33.30076 | -112.60754 | 12765 ft | 294 kts | 81° |
| 2026-05-07 23:58 | 33.30310 | -112.58235 | 12507 ft | 294 kts | 81° |
| 2026-05-07 23:58 | 33.30545 | -112.55689 | 12248 ft | 294 kts | 81° |
| 2026-05-07 23:58 | 33.30784 | -112.53113 | 11986 ft | 293 kts | 81° |
| 2026-05-07 23:59 | 33.31024 | -112.50522 | 11721 ft | 292 kts | 81° |
| 2026-05-07 23:59 | 33.31262 | -112.47928 | 11457 ft | 292 kts | 81° |
| 2026-05-07 23:59 | 33.31495 | -112.45386 | 11203 ft | 291 kts | 81° |
| 2026-05-07 23:59 | 33.31728 | -112.42837 | 11039 ft | 290 kts | 81° |
| 2026-05-08 00:00 | 33.31956 | -112.40340 | 11042 ft | 291 kts | 81° |
| 2026-05-08 00:00 | 33.32186 | -112.37830 | 11045 ft | 292 kts | 81° |
| 2026-05-08 00:00 | 33.32418 | -112.35285 | 11030 ft | 293 kts | 81° |
| 2026-05-08 00:00 | 33.32654 | -112.32714 | 10781 ft | 293 kts | 82° |
| 2026-05-08 00:01 | 33.32889 | -112.30131 | 10528 ft | 293 kts | 81° |
| 2026-05-08 00:01 | 33.33127 | -112.27512 | 10277 ft | 292 kts | 82° |
| 2026-05-08 00:01 | 33.33369 | -112.24853 | 10037 ft | 292 kts | 82° |
| 2026-05-08 00:01 | 33.33601 | -112.22295 | 9852 ft | 292 kts | 82° |
| 2026-05-08 00:02 | 33.33831 | -112.19730 | 9639 ft | 292 kts | 82° |
| 2026-05-08 00:02 | 33.34065 | -112.17129 | 9347 ft | 292 kts | 82° |
| 2026-05-08 00:02 | 33.34291 | -112.14602 | 9079 ft | 286 kts | 82° |
| 2026-05-08 00:02 | 33.34514 | -112.12109 | 9038 ft | 270 kts | 82° |
| 2026-05-08 00:03 | 33.34713 | -112.09724 | 9039 ft | 264 kts | 84° |
| 2026-05-08 00:03 | 33.34756 | -112.07436 | 9033 ft | 265 kts | 88° |
| 2026-05-08 00:03 | 33.34728 | -112.05055 | 8760 ft | 267 kts | 89° |
| 2026-05-08 00:03 | 33.34689 | -112.02537 | 8357 ft | 266 kts | 89° |
| 2026-05-08 00:04 | 33.34654 | -112.00191 | 7997 ft | 265 kts | 89° |
| 2026-05-08 00:04 | 33.34620 | -111.97681 | 7627 ft | 264 kts | 89° |
| 2026-05-08 00:04 | 33.34586 | -111.95270 | 7272 ft | 262 kts | 89° |
| 2026-05-08 00:04 | 33.34568 | -111.92935 | 6978 ft | 258 kts | 88° |
| 2026-05-08 00:05 | 33.34599 | -111.90597 | 6803 ft | 259 kts | 87° |
| 2026-05-08 00:05 | 33.34650 | -111.88394 | 6378 ft | 263 kts | 86° |
| 2026-05-08 00:05 | 33.34705 | -111.86126 | 6030 ft | 262 kts | 86° |
| 2026-05-08 00:05 | 33.34753 | -111.83948 | 5786 ft | 257 kts | 87° |
| 2026-05-08 00:06 | 33.34800 | -111.81719 | 5577 ft | 252 kts | 87° |
| 2026-05-08 00:06 | 33.34846 | -111.79480 | 5392 ft | 253 kts | 87° |
| 2026-05-08 00:06 | 33.34907 | -111.77254 | 5193 ft | 251 kts | 82° |
| 2026-05-08 00:06 | 33.35632 | -111.75227 | 5029 ft | 235 kts | 41° |
| 2026-05-08 00:07 | 33.37262 | -111.74256 | 5043 ft | 226 kts | 8° |
| 2026-05-08 00:07 | 33.39066 | -111.74180 | 5050 ft | 225 kts | 358° |
| 2026-05-08 00:07 | 33.40853 | -111.74209 | 5041 ft | 226 kts | 359° |
| 2026-05-08 00:07 | 33.42574 | -111.74611 | 5017 ft | 224 kts | 328° |
| 2026-05-08 00:08 | 33.43750 | -111.76141 | 4945 ft | 226 kts | 294° |
| 2026-05-08 00:08 | 33.44101 | -111.78219 | 4578 ft | 227 kts | 274° |
| 2026-05-08 00:08 | 33.44122 | -111.80298 | 4216 ft | 228 kts | 271° |
| 2026-05-08 00:08 | 33.44094 | -111.82282 | 3910 ft | 226 kts | 271° |
| 2026-05-08 00:09 | 33.44061 | -111.84291 | 3499 ft | 230 kts | 270° |
| 2026-05-08 00:09 | 33.44033 | -111.86320 | 3215 ft | 218 kts | 271° |
| 2026-05-08 00:09 | 33.44049 | -111.88107 | 3025 ft | 199 kts | 272° |
| 2026-05-08 00:09 | 33.44056 | -111.89774 | 2656 ft | 188 kts | 271° |
| 2026-05-08 00:10 | 33.44067 | -111.91309 | 2348 ft | 174 kts | 271° |
| 2026-05-08 00:10 | 33.44070 | -111.92714 | 2097 ft | 158 kts | 270° |
| 2026-05-08 00:10 | 33.44071 | -111.93984 | 1870 ft | 147 kts | 270° |
| 2026-05-08 00:10 | 33.44077 | -111.95213 | 1717 ft | 146 kts | 270° |
| 2026-05-08 00:11 | 33.44079 | -111.96441 | 1562 ft | 146 kts | 270° |
| 2026-05-08 00:11 | 33.44078 | -111.97671 | 1391 ft | 145 kts | 269° |
| 2026-05-08 00:11 | 33.44079 | -111.98899 | 1217 ft | 144 kts | 270° |
| 2026-05-08 00:11 | 33.44079 | -112.00049 | 1140 ft | 123 kts | 270° |
| 2026-05-08 00:12 | 33.44081 | -112.00873 | 1137 ft | 73 kts | 270° |
| 2026-05-08 00:12 | 33.44062 | -112.01061 | 1136 ft | 9 kts | 218° |
| 2026-05-08 00:12 | 33.43996 | -112.01082 | 1136 ft | 10 kts | 158° |
| 2026-05-08 00:12 | 33.43976 | -112.01010 | 1137 ft | 9 kts | 90° |
| 2026-05-08 00:13 | 33.43977 | -112.00925 | 1137 ft | 11 kts | 89° |
| 2026-05-08 00:13 | 33.43975 | -112.00801 | 1138 ft | 17 kts | 90° |
| 2026-05-08 00:13 | 33.43976 | -112.00655 | 1138 ft | 16 kts | 89° |
| 2026-05-08 00:13 | 33.43976 | -112.00532 | 1138 ft | 12 kts | 91° |
| 2026-05-08 00:14 | 33.43975 | -112.00440 | 1139 ft | 9 kts | 90° |
| 2026-05-08 00:14 | 33.43975 | -112.00375 | 1139 ft | 6 kts | 89° |
| 2026-05-08 00:14 | 33.43975 | -112.00327 | 1139 ft | 7 kts | 90° |
| 2026-05-08 00:14 | 33.43975 | -112.00223 | 1139 ft | 13 kts | 90° |
| 2026-05-08 00:15 | 33.43976 | -112.00114 | 1140 ft | 13 kts | 91° |
| 2026-05-08 00:15 | 33.43975 | -112.00002 | 1140 ft | 13 kts | 90° |
| 2026-05-08 00:15 | 33.43974 | -111.99892 | 1140 ft | 13 kts | 95° |
| 2026-05-08 00:15 | 33.43908 | -111.99834 | 1140 ft | 13 kts | 173° |
| 2026-05-08 00:16 | 33.43826 | -111.99827 | 1139 ft | 8 kts | 179° |
| 2026-05-08 00:16 | 33.43769 | -111.99832 | 1138 ft | 3 kts | 210° |
| 2026-05-08 00:16 | 33.43760 | -111.99850 | 1138 ft | 1 kts | 254° |
| 2026-05-08 00:16 | 33.43758 | -111.99864 | 1138 ft | 2 kts | 263° |
| 2026-05-08 00:17 | 33.43758 | -111.99875 | 1138 ft | 0 kts | 269° |